createdAt,value
2022-09-26T00:00:36.264Z,85.53
2022-09-26T00:02:57.807Z,84.88
2022-09-26T00:05:19.319Z,84.98
2022-09-26T00:07:40.756Z,85.19
2022-09-26T00:10:02.353Z,84.72
2022-09-26T00:12:23.809Z,84.89
2022-09-26T00:14:45.286Z,84.72
2022-09-26T00:17:06.771Z,84.94
2022-09-26T00:19:28.233Z,84.68
2022-09-26T00:21:49.651Z,84.80
2022-09-26T00:24:11.777Z,84.78
2022-09-26T00:26:34.990Z,85.06
2022-09-26T00:28:57.704Z,84.52
2022-09-26T00:31:30.332Z,84.33
2022-09-26T00:33:52.032Z,83.79
2022-09-26T00:36:13.510Z,83.51
2022-09-26T00:38:35.684Z,83.49
2022-09-26T00:40:57.210Z,83.66
2022-09-26T00:43:33.376Z,83.74
2022-09-26T00:45:58.295Z,83.49
2022-09-26T00:48:19.841Z,83.70
2022-09-26T00:50:41.923Z,83.66
2022-09-26T00:53:12.881Z,83.24
2022-09-26T00:55:39.642Z,83.50
2022-09-26T00:58:08.903Z,83.28
2022-09-26T01:00:31.120Z,83.35
2022-09-26T01:02:53.607Z,83.04
2022-09-26T01:05:18.117Z,83.25
2022-09-26T01:07:39.957Z,83.62
2022-09-26T01:10:03.808Z,83.42
2022-09-26T01:12:25.319Z,83.06
2022-09-26T01:14:49.188Z,82.84
2022-09-26T01:17:11.574Z,82.94
2022-09-26T01:19:49.553Z,83.08
2022-09-26T01:22:58.164Z,83.95
2022-09-26T01:25:41.923Z,83.76
2022-09-26T01:28:34.628Z,83.89
2022-09-26T01:31:04.755Z,83.54
2022-09-26T01:33:47.593Z,84.23
2022-09-26T01:36:38.485Z,83.71
2022-09-26T01:39:18.117Z,83.44
2022-09-26T01:41:57.986Z,83.18
2022-09-26T01:44:20.099Z,83.18
2022-09-26T01:46:49.134Z,82.96
2022-09-26T01:49:43.277Z,83.54
2022-09-26T01:52:16.386Z,83.66
2022-09-26T01:54:44.774Z,84.10
2022-09-26T01:57:11.203Z,83.56
2022-09-26T01:59:39.495Z,83.72
2022-09-26T02:02:10.526Z,83.09
2022-09-26T02:04:39.476Z,83.60
2022-09-26T02:07:11.290Z,83.79
2022-09-26T02:09:42.613Z,84.11
2022-09-26T02:12:09.488Z,83.90
2022-09-26T02:14:36.512Z,83.35
2022-09-26T02:17:17.895Z,84.13
2022-09-26T02:19:56.808Z,83.74
2022-09-26T02:22:19.076Z,84.59
2022-09-26T02:24:40.558Z,84.14
2022-09-26T02:27:03.074Z,84.20
2022-09-26T02:29:24.638Z,83.84
2022-09-26T02:31:51.977Z,83.75
2022-09-26T02:34:13.454Z,83.47
2022-09-26T02:36:35.576Z,83.62
2022-09-26T02:38:57.016Z,83.78
2022-09-26T02:41:33.731Z,83.17
2022-09-26T02:44:12.675Z,82.78
2022-09-26T02:47:10.354Z,82.55
2022-09-26T02:49:59.129Z,82.54
2022-09-26T02:52:27.961Z,82.82
2022-09-26T02:55:06.481Z,83.04
2022-09-26T02:57:52.971Z,82.88
2022-09-26T03:00:25.411Z,82.84
2022-09-26T03:03:03.123Z,82.80
2022-09-26T03:05:29.718Z,83.59
2022-09-26T03:07:56.700Z,83.70
2022-09-26T03:10:19.622Z,83.38
2022-09-26T03:12:44.478Z,83.60
2022-09-26T03:15:07.500Z,85.00
2022-09-26T03:17:31.178Z,84.17
2022-09-26T03:19:58.080Z,83.39
2022-09-26T03:22:19.593Z,83.11
2022-09-26T03:24:42.663Z,83.26
2022-09-26T03:27:05.463Z,83.05
2022-09-26T03:29:26.949Z,83.19
2022-09-26T03:31:50.330Z,83.05
2022-09-26T03:34:12.439Z,83.65
2022-09-26T03:36:33.950Z,85.28
2022-09-26T03:38:55.417Z,85.25
2022-09-26T03:41:16.947Z,85.35
2022-09-26T03:43:39.056Z,85.54
2022-09-26T03:46:04.898Z,85.92
2022-09-26T03:48:26.701Z,85.36
2022-09-26T03:50:48.271Z,86.19
2022-09-26T03:53:09.736Z,84.10
2022-09-26T03:55:31.154Z,84.12
2022-09-26T03:57:52.607Z,84.99
2022-09-26T04:00:14.268Z,84.98
2022-09-26T04:02:35.969Z,85.07
2022-09-26T04:04:57.427Z,86.97
2022-09-26T04:07:18.883Z,84.89
2022-09-26T04:09:40.337Z,85.22
2022-09-26T04:12:01.870Z,85.74
2022-09-26T04:14:23.363Z,85.99
2022-09-26T04:16:44.848Z,85.80
2022-09-26T04:19:06.361Z,87.63
2022-09-26T04:21:28.604Z,87.10
2022-09-26T04:23:50.375Z,86.43
2022-09-26T04:26:20.212Z,86.46
2022-09-26T04:28:44.745Z,87.76
2022-09-26T04:31:07.824Z,86.24
2022-09-26T04:33:29.555Z,86.56
2022-09-26T04:35:51.115Z,86.86
2022-09-26T04:38:12.590Z,86.11
2022-09-26T04:40:35.717Z,85.91
2022-09-26T04:42:59.013Z,85.16
2022-09-26T04:45:20.456Z,85.01
2022-09-26T04:47:41.871Z,85.15
2022-09-26T04:50:03.464Z,85.19
2022-09-26T04:52:24.925Z,85.14
2022-09-26T04:54:46.355Z,84.96
2022-09-26T04:57:07.799Z,84.82
2022-09-26T04:59:29.217Z,86.14
2022-09-26T05:01:50.763Z,86.00
2022-09-26T05:04:12.443Z,86.60
2022-09-26T05:06:33.876Z,87.09
2022-09-26T05:08:55.353Z,85.93
2022-09-26T05:11:17.937Z,85.83
2022-09-26T05:13:39.514Z,86.14
2022-09-26T05:16:02.980Z,85.89
2022-09-26T05:18:25.374Z,85.54
2022-09-26T05:20:48.271Z,85.93
2022-09-26T05:23:10.334Z,86.99
2022-09-26T05:26:08.224Z,86.38
2022-09-26T05:28:29.649Z,85.82
2022-09-26T05:30:51.954Z,86.24
2022-09-26T05:33:13.389Z,87.84
2022-09-26T05:35:35.295Z,86.81
2022-09-26T05:38:01.198Z,85.73
2022-09-26T05:40:41.244Z,85.44
2022-09-26T05:43:03.466Z,85.85
2022-09-26T05:45:24.880Z,85.75
2022-09-26T05:47:48.654Z,86.60
2022-09-26T05:50:10.851Z,85.72
2022-09-26T05:52:32.266Z,87.38
2022-09-26T05:54:53.684Z,85.79
2022-09-26T05:57:15.253Z,85.19
2022-09-26T05:59:36.675Z,85.14
2022-09-26T06:01:58.635Z,85.49
2022-09-26T06:04:20.202Z,87.82
2022-09-26T06:06:42.418Z,86.19
2022-09-26T06:09:04.002Z,87.65
2022-09-26T06:11:30.754Z,87.12
2022-09-26T06:13:52.918Z,86.63
2022-09-26T06:16:18.523Z,89.64
2022-09-26T06:18:41.949Z,89.38
2022-09-26T06:21:04.952Z,87.39
2022-09-26T06:23:26.379Z,86.97
2022-09-26T06:25:47.823Z,87.93
2022-09-26T06:28:09.263Z,87.47
2022-09-26T06:30:31.000Z,88.22
2022-09-26T06:32:53.291Z,88.98
2022-09-26T06:35:15.016Z,88.66
2022-09-26T06:37:36.448Z,88.66
2022-09-26T06:39:59.521Z,92.25
2022-09-26T06:42:21.245Z,90.68
2022-09-26T06:44:42.663Z,89.21
2022-09-26T06:47:04.656Z,89.69
2022-09-26T06:49:27.268Z,89.83
2022-09-26T06:51:51.572Z,90.69
2022-09-26T06:54:12.984Z,89.44
2022-09-26T06:56:34.403Z,90.46
2022-09-26T06:58:55.837Z,91.18
2022-09-26T07:01:18.475Z,90.06
2022-09-26T07:03:45.179Z,90.39
2022-09-26T07:06:07.540Z,89.62
2022-09-26T07:08:57.337Z,88.16
2022-09-26T07:11:32.869Z,86.90
2022-09-26T07:13:53.069Z,88.29
2022-09-26T07:16:14.559Z,86.84
2022-09-26T07:18:37.964Z,88.24
2022-09-26T07:20:59.409Z,88.20
2022-09-26T07:23:20.951Z,88.41
2022-09-26T07:25:46.821Z,87.73
2022-09-26T07:28:10.264Z,87.68
2022-09-26T07:30:31.763Z,86.49
2022-09-26T07:32:53.208Z,85.90
2022-09-26T07:35:17.227Z,84.88
2022-09-26T07:37:38.647Z,84.26
2022-09-26T07:40:01.738Z,85.47
2022-09-26T07:42:23.645Z,84.94
2022-09-26T07:47:45.293Z,83.95
2022-09-26T07:50:16.631Z,81.41
2022-09-26T07:52:39.178Z,81.45
2022-09-26T07:55:00.623Z,81.72
2022-09-26T07:57:22.125Z,81.99
2022-09-26T07:59:43.565Z,81.64
2022-09-26T08:02:05.162Z,79.20
2022-09-26T08:04:28.315Z,77.90
2022-09-26T08:06:50.167Z,77.40
2022-09-26T08:09:11.821Z,74.85
2022-09-26T08:11:33.864Z,73.73
2022-09-26T08:13:55.432Z,74.50
2022-09-26T08:16:23.011Z,73.74
2022-09-26T08:18:44.797Z,74.14
2022-09-26T08:21:07.042Z,73.79
2022-09-26T08:23:29.422Z,74.86
2022-09-26T08:25:50.858Z,74.76
2022-09-26T08:28:12.948Z,75.66
2022-09-26T08:30:34.358Z,76.39
2022-09-26T08:32:59.067Z,76.86
2022-09-26T08:35:20.888Z,77.38
2022-09-26T08:37:42.316Z,77.40
2022-09-26T08:40:03.942Z,77.55
2022-09-26T08:42:54.258Z,77.84
2022-09-26T08:45:43.071Z,77.44
2022-09-26T08:48:33.262Z,79.76
2022-09-26T08:51:02.362Z,75.79
2022-09-26T08:53:40.620Z,78.24
2022-09-26T08:56:09.925Z,77.44
2022-09-26T08:58:40.663Z,76.95
2022-09-26T09:01:11.337Z,77.78
2022-09-26T09:03:54.693Z,75.96
2022-09-26T09:06:17.794Z,76.70
2022-09-26T09:08:43.179Z,76.29
2022-09-26T09:11:13.496Z,74.34
2022-09-26T09:13:37.969Z,71.89
2022-09-26T09:16:23.157Z,71.59
2022-09-26T09:19:11.953Z,72.46
2022-09-26T09:21:55.570Z,70.92
2022-09-26T09:24:28.618Z,72.01
2022-09-26T09:30:17.293Z,69.51
2022-09-26T09:32:51.640Z,68.63
2022-09-26T09:35:20.579Z,68.24
2022-09-26T09:37:48.853Z,65.00
2022-09-26T09:40:21.888Z,66.56
2022-09-26T09:42:48.127Z,67.74
2022-09-26T09:45:23.742Z,65.61
2022-09-26T09:47:45.732Z,63.69
2022-09-26T09:50:40.631Z,63.64
2022-09-26T09:53:45.373Z,62.02
2022-09-26T09:56:23.327Z,62.32
2022-09-26T09:58:53.085Z,62.37
2022-09-26T10:01:28.385Z,60.30
2022-09-26T10:04:01.361Z,59.19
2022-09-26T10:06:46.476Z,59.52
2022-09-26T10:09:35.280Z,61.79
2022-09-26T10:12:17.017Z,58.13
2022-09-26T10:14:46.325Z,58.67
2022-09-26T10:17:10.816Z,57.93
2022-09-26T10:19:39.075Z,58.55
2022-09-26T10:22:01.117Z,59.07
2022-09-26T10:24:40.823Z,60.64
2022-09-26T10:27:15.223Z,58.09
2022-09-26T10:29:38.358Z,59.45
2022-09-26T10:32:00.717Z,60.16
2022-09-26T10:34:30.279Z,60.84
2022-09-26T10:36:52.705Z,60.69
2022-09-26T10:39:39.730Z,59.74
2022-09-26T10:42:02.313Z,60.23
2022-09-26T10:44:34.950Z,56.80
2022-09-26T10:47:00.350Z,57.83
2022-09-26T10:49:26.961Z,59.28
2022-09-26T10:51:56.204Z,57.85
2022-09-26T10:54:26.738Z,57.27
2022-09-26T10:56:59.117Z,57.64
2022-09-26T10:59:27.258Z,58.34
2022-09-26T11:01:56.010Z,58.35
2022-09-26T11:04:52.234Z,58.50
2022-09-26T11:07:29.214Z,59.10
2022-09-26T11:09:52.567Z,59.12
2022-09-26T11:12:25.450Z,60.29
2022-09-26T11:14:47.011Z,60.49
2022-09-26T11:17:08.997Z,58.73
2022-09-26T11:19:53.794Z,57.14
2022-09-26T11:22:23.649Z,57.31
2022-09-26T11:24:52.674Z,60.03
2022-09-26T11:27:44.028Z,60.07
2022-09-26T11:30:20.803Z,59.75
2022-09-26T11:32:45.129Z,60.44
2022-09-26T11:35:34.225Z,60.84
2022-09-26T11:38:35.905Z,57.47
2022-09-26T11:41:39.089Z,55.92
2022-09-26T11:44:20.775Z,54.69
2022-09-26T11:47:27.454Z,53.91
2022-09-26T11:49:59.275Z,54.33
2022-09-26T11:52:49.557Z,55.25
2022-09-26T11:55:10.990Z,56.21
2022-09-26T11:57:55.138Z,57.09
2022-09-26T12:00:29.201Z,60.80
2022-09-26T12:03:13.939Z,59.64
2022-09-26T12:05:50.396Z,58.19
2022-09-26T12:08:30.268Z,59.24
2022-09-26T12:11:16.573Z,58.60
2022-09-26T12:13:47.247Z,59.76
2022-09-26T12:16:41.089Z,59.17
2022-09-26T12:19:15.579Z,58.02
2022-09-26T12:22:03.612Z,54.38
2022-09-26T12:24:35.923Z,52.68
2022-09-26T12:27:10.312Z,53.56
2022-09-26T12:29:40.660Z,52.89
2022-09-26T12:32:39.595Z,51.05
2022-09-26T12:35:44.014Z,49.79
2022-09-26T12:38:25.982Z,51.18
2022-09-26T12:41:04.321Z,51.05
2022-09-26T12:43:44.869Z,49.99
2022-09-26T12:46:27.435Z,50.30
2022-09-26T12:49:31.346Z,50.03
2022-09-26T12:51:58.196Z,50.76
2022-09-26T12:54:37.052Z,50.42
2022-09-26T12:57:22.900Z,50.13
2022-09-26T13:00:22.757Z,51.30
2022-09-26T13:03:35.492Z,51.95
2022-09-26T13:06:29.454Z,52.05
2022-09-26T13:09:07.241Z,52.55
2022-09-26T13:12:14.506Z,52.09
2022-09-26T13:14:55.202Z,53.50
2022-09-26T13:17:22.325Z,52.94
2022-09-26T13:19:55.775Z,53.75
2022-09-26T13:22:42.753Z,52.71
2022-09-26T13:25:37.329Z,53.37
2022-09-26T13:28:07.092Z,54.60
2022-09-26T13:30:36.139Z,53.81
2022-09-26T13:33:23.090Z,53.62
2022-09-26T13:35:47.367Z,53.09
2022-09-26T13:38:37.947Z,53.95
2022-09-26T13:41:26.822Z,55.38
2022-09-26T13:44:08.933Z,56.04
2022-09-26T13:47:00.142Z,55.74
2022-09-26T13:49:43.632Z,55.57
2022-09-26T13:52:15.134Z,55.96
2022-09-26T13:54:45.395Z,57.06
2022-09-26T13:57:31.826Z,58.14
2022-09-26T13:59:54.375Z,57.27
2022-09-26T14:02:29.218Z,55.34
2022-09-26T14:04:53.096Z,56.28
2022-09-26T14:07:35.907Z,56.29
2022-09-26T14:10:08.200Z,55.35
2022-09-26T14:13:05.947Z,55.17
2022-09-26T14:15:54.448Z,52.83
2022-09-26T14:18:28.232Z,52.48
2022-09-26T14:20:57.753Z,51.97
2022-09-26T14:23:38.174Z,52.51
2022-09-26T14:26:06.248Z,51.91
2022-09-26T14:28:36.154Z,51.78
2022-09-26T14:31:31.886Z,52.64
2022-09-26T14:34:17.529Z,52.63
2022-09-26T14:36:39.187Z,52.81
2022-09-26T14:39:02.543Z,52.85
2022-09-26T14:41:28.825Z,54.01
2022-09-26T14:43:51.768Z,54.13
2022-09-26T14:46:24.305Z,53.78
2022-09-26T14:48:46.306Z,54.31
2022-09-26T14:51:15.773Z,55.37
2022-09-26T14:54:02.452Z,54.51
2022-09-26T14:56:29.699Z,55.57
2022-09-26T14:58:51.830Z,56.58
2022-09-26T15:01:23.403Z,55.73
2022-09-26T15:04:08.385Z,56.44
2022-09-26T15:06:35.620Z,55.34
2022-09-26T15:09:01.727Z,55.16
2022-09-26T15:11:34.730Z,56.15
2022-09-26T15:13:56.685Z,56.13
2022-09-26T15:16:32.375Z,56.31
2022-09-26T15:19:03.168Z,56.72
2022-09-26T15:21:26.455Z,57.39
2022-09-26T15:23:53.490Z,58.17
2022-09-26T15:26:19.368Z,58.56
2022-09-26T15:28:40.869Z,59.04
2022-09-26T15:31:28.755Z,63.26
2022-09-26T15:34:02.286Z,62.62
2022-09-26T15:36:28.226Z,64.67
2022-09-26T15:38:49.854Z,65.09
2022-09-26T15:41:39.138Z,66.17
2022-09-26T15:44:01.303Z,68.98
2022-09-26T15:46:24.287Z,68.09
2022-09-26T15:48:45.811Z,68.88
2022-09-26T15:51:39.035Z,62.30
2022-09-26T15:54:07.401Z,65.34
2022-09-26T15:56:40.599Z,65.38
2022-09-26T15:59:13.561Z,63.96
2022-09-26T16:01:41.629Z,61.89
2022-09-26T16:04:13.461Z,62.86
2022-09-26T16:06:42.070Z,61.99
2022-09-26T16:09:09.708Z,61.32
2022-09-26T16:11:32.880Z,60.65
2022-09-26T16:13:56.663Z,61.10
2022-09-26T16:16:24.205Z,60.15
2022-09-26T16:18:52.660Z,59.23
2022-09-26T16:21:21.934Z,61.05
2022-09-26T16:23:49.714Z,60.96
2022-09-26T16:26:30.243Z,60.83
2022-09-26T16:28:55.114Z,61.63
2022-09-26T16:31:24.905Z,61.70
2022-09-26T16:33:51.272Z,62.34
2022-09-26T16:36:28.084Z,62.12
2022-09-26T16:39:01.077Z,62.35
2022-09-26T16:42:00.474Z,62.75
2022-09-26T16:44:35.911Z,63.46
2022-09-26T16:47:02.542Z,62.76
2022-09-26T16:49:45.770Z,63.89
2022-09-26T16:52:20.177Z,63.38
2022-09-26T16:54:41.845Z,63.89
2022-09-26T16:57:05.698Z,64.30
2022-09-26T16:59:29.030Z,64.81
2022-09-26T17:01:54.609Z,65.95
2022-09-26T17:04:18.873Z,65.50
2022-09-26T17:06:40.410Z,65.17
2022-09-26T17:09:12.110Z,65.10
2022-09-26T17:11:33.631Z,66.16
2022-09-26T17:13:55.151Z,65.66
2022-09-26T17:16:16.642Z,65.06
2022-09-26T17:18:38.317Z,64.98
2022-09-26T17:21:00.886Z,65.04
2022-09-26T17:23:39.471Z,64.43
2022-09-26T17:26:02.859Z,64.46
2022-09-26T17:28:37.875Z,62.83
2022-09-26T17:31:06.243Z,62.53
2022-09-26T17:33:29.557Z,63.18
2022-09-26T17:35:51.027Z,63.49
2022-09-26T17:38:13.971Z,62.61
2022-09-26T17:40:35.454Z,61.13
2022-09-26T17:42:59.738Z,61.42
2022-09-26T17:45:25.953Z,61.71
2022-09-26T17:47:47.598Z,61.67
2022-09-26T17:50:20.042Z,61.80
2022-09-26T17:52:41.613Z,62.34
2022-09-26T17:55:06.794Z,62.38
2022-09-26T17:57:30.303Z,62.50
2022-09-26T17:59:54.060Z,63.28
2022-09-26T18:02:31.399Z,63.51
2022-09-26T18:04:54.546Z,63.78
2022-09-26T18:07:16.290Z,64.31
2022-09-26T18:09:39.173Z,64.60
2022-09-26T18:12:04.027Z,64.96
2022-09-26T18:14:25.574Z,65.43
2022-09-26T18:16:47.015Z,66.19
2022-09-26T18:19:09.585Z,67.15
2022-09-26T18:21:30.997Z,68.44
2022-09-26T18:23:56.501Z,69.00
2022-09-26T18:26:28.055Z,68.68
2022-09-26T18:28:49.621Z,69.10
2022-09-26T18:31:11.437Z,69.85
2022-09-26T18:33:37.774Z,70.91
2022-09-26T18:35:59.548Z,70.99
2022-09-26T18:38:22.223Z,71.48
2022-09-26T18:40:50.350Z,70.47
2022-09-26T18:43:19.036Z,70.42
2022-09-26T18:45:40.538Z,70.94
2022-09-26T18:48:08.175Z,70.50
2022-09-26T18:50:36.580Z,70.71
2022-09-26T18:52:58.005Z,70.64
2022-09-26T18:55:41.723Z,70.48
2022-09-26T18:58:21.615Z,70.28
2022-09-26T19:00:43.311Z,70.69
2022-09-26T19:03:04.785Z,70.56
2022-09-26T19:05:26.278Z,71.93
2022-09-26T19:07:47.826Z,71.46
2022-09-26T19:10:15.425Z,72.38
2022-09-26T19:12:39.517Z,72.74
2022-09-26T19:15:00.962Z,73.39
2022-09-26T19:17:22.581Z,73.88
2022-09-26T19:19:44.049Z,73.67
2022-09-26T19:22:17.103Z,75.50
2022-09-26T19:24:46.571Z,74.93
2022-09-26T19:27:16.923Z,75.70
2022-09-26T19:30:04.909Z,76.18
2022-09-26T19:32:33.885Z,76.15
2022-09-26T19:34:59.148Z,77.17
2022-09-26T19:37:20.774Z,77.51
2022-09-26T19:39:42.256Z,78.99
2022-09-26T19:42:03.719Z,79.93
2022-09-26T19:44:25.201Z,80.25
2022-09-26T19:46:47.474Z,79.52
2022-09-26T19:49:16.190Z,81.20
2022-09-26T19:51:39.736Z,81.85
2022-09-26T19:54:05.936Z,82.82
2022-09-26T19:56:27.772Z,83.94
2022-09-26T19:58:50.518Z,84.85
2022-09-26T20:01:21.260Z,84.64
2022-09-26T20:03:44.816Z,84.38
2022-09-26T20:06:23.527Z,85.09
2022-09-26T20:08:45.081Z,84.41
2022-09-26T20:11:07.100Z,83.90
2022-09-26T20:13:48.496Z,84.94
2022-09-26T20:16:12.063Z,86.08
2022-09-26T20:18:33.542Z,86.08
2022-09-26T20:20:56.877Z,85.43
2022-09-26T20:23:22.390Z,85.38
2022-09-26T20:25:43.844Z,86.46
2022-09-26T20:28:05.313Z,87.15
2022-09-26T20:30:45.742Z,89.08
2022-09-26T20:33:08.812Z,92.09
2022-09-26T20:35:35.690Z,93.90
2022-09-26T20:38:03.009Z,96.73
2022-09-26T20:40:24.599Z,96.41
2022-09-26T20:42:50.635Z,97.98
2022-09-26T20:45:16.627Z,99.71
2022-09-26T20:47:40.403Z,99.98
2022-09-26T20:50:02.248Z,100.00
2022-09-26T20:52:26.313Z,100.00
2022-09-26T20:54:47.837Z,100.00
2022-09-26T20:57:09.315Z,100.00
2022-09-26T20:59:34.914Z,99.78
2022-09-26T21:01:57.582Z,99.79
2022-09-26T21:04:21.808Z,98.35
2022-09-26T21:06:44.062Z,97.21
2022-09-26T21:09:05.526Z,98.81
2022-09-26T21:11:27.055Z,99.64
2022-09-26T21:13:48.836Z,99.43
2022-09-26T21:16:15.211Z,100.00
2022-09-26T21:18:37.101Z,100.00
2022-09-26T21:21:05.781Z,100.00
2022-09-26T21:23:27.315Z,100.00
2022-09-26T21:25:48.829Z,100.00
2022-09-26T21:28:28.199Z,100.00
2022-09-26T21:30:49.980Z,99.53
2022-09-26T21:33:13.583Z,99.48
2022-09-26T21:35:35.026Z,99.98
2022-09-26T21:37:58.611Z,99.99
2022-09-26T21:40:22.828Z,98.73
2022-09-26T21:42:49.303Z,99.64
2022-09-26T21:45:11.900Z,99.52
2022-09-26T21:47:36.455Z,100.00
2022-09-26T21:49:58.083Z,100.00
2022-09-26T21:52:24.992Z,100.00
2022-09-26T21:54:46.741Z,100.00
2022-09-26T21:57:16.044Z,100.00
2022-09-26T21:59:39.382Z,100.00
2022-09-26T22:02:00.844Z,100.00
2022-09-26T22:04:22.524Z,99.25
2022-09-26T22:06:43.973Z,98.82
2022-09-26T22:09:05.487Z,97.80
2022-09-26T22:11:27.096Z,97.84
2022-09-26T22:13:48.541Z,97.53
2022-09-26T22:16:12.975Z,99.06
2022-09-26T22:18:35.317Z,99.54
2022-09-26T22:20:56.760Z,99.85
2022-09-26T22:23:18.677Z,99.26
2022-09-26T22:25:42.899Z,98.84
2022-09-26T22:28:04.550Z,97.76
2022-09-26T22:30:26.064Z,95.58
2022-09-26T22:32:47.519Z,97.62
2022-09-26T22:35:09.074Z,97.48
2022-09-26T22:37:30.708Z,97.07
2022-09-26T22:39:53.243Z,98.18
2022-09-26T22:42:14.815Z,98.28
2022-09-26T22:44:36.251Z,98.17
2022-09-26T22:46:57.677Z,98.17
2022-09-26T22:49:19.089Z,98.52
2022-09-26T22:51:41.129Z,99.38
2022-09-26T22:54:02.791Z,98.24
2022-09-26T22:56:24.283Z,98.22
2022-09-26T22:58:49.330Z,99.50
2022-09-26T23:01:13.531Z,99.25
2022-09-26T23:03:35.630Z,98.48
2022-09-26T23:05:57.058Z,98.57
2022-09-26T23:08:18.524Z,96.56
2022-09-26T23:10:39.951Z,96.58
2022-09-26T23:13:01.359Z,97.26
2022-09-26T23:15:22.810Z,97.48
2022-09-26T23:17:44.213Z,97.03
2022-09-26T23:20:06.572Z,97.37
2022-09-26T23:22:27.960Z,98.99
2022-09-26T23:24:49.380Z,98.88
2022-09-26T23:27:10.806Z,99.08
2022-09-26T23:29:32.537Z,98.73
2022-09-26T23:31:53.969Z,97.52
2022-09-26T23:34:15.383Z,98.59
2022-09-26T23:36:36.814Z,98.64
2022-09-26T23:38:58.607Z,98.47
2022-09-26T23:41:20.162Z,98.24
2022-09-26T23:43:41.873Z,99.01
2022-09-26T23:46:04.221Z,99.01
2022-09-26T23:48:25.713Z,100.00
2022-09-26T23:50:47.520Z,99.69
2022-09-26T23:53:08.926Z,99.39
2022-09-26T23:55:30.351Z,99.27
2022-09-26T23:57:51.830Z,100.00
